Terminal Aerodrome Forecast
Issued by NWS Albany, NY

Home | Current Version | Previous Version | Text Only | Print | Product List | Glossary On
Versions: 1 2 3 4 5 6 7 8 9 10 11 12 13 14 15 16 17 18
874
FTUS41 KALY 082324
TAFPOU
TAF
KPOU 082324Z 0900/0924 03005KT 4SM -SN SCT015 OVC035
      TEMPO 0900/0903 2SM -SN BKN008 OVC015
     FM090300 03005KT P6SM VCSH SCT008 OVC020
     FM092300 VRB03KT P6SM VCSH OVC030=

USA.gov is the U.S. government's official web portal to all federal, state and local government web resources and services.